createdAt,value
2023-05-01T00:00:15.592Z,94913.00
2023-05-01T00:01:15.605Z,94915.00
2023-05-01T00:02:15.661Z,94917.00
2023-05-01T00:03:15.698Z,94915.00
2023-05-01T00:04:15.829Z,94913.00
2023-05-01T00:05:15.633Z,94913.00
2023-05-01T00:06:15.711Z,94909.00
2023-05-01T00:07:15.688Z,94911.00
2023-05-01T00:08:15.703Z,94909.00
2023-05-01T00:09:15.691Z,94909.00
2023-05-01T00:10:15.735Z,94909.00
2023-05-01T00:11:15.743Z,94907.00
2023-05-01T00:12:15.751Z,94907.00
2023-05-01T00:13:15.761Z,94909.00
2023-05-01T00:14:15.792Z,94909.00
2023-05-01T00:15:15.796Z,94909.00
2023-05-01T00:16:15.812Z,94909.00
2023-05-01T00:17:15.832Z,94907.00
2023-05-01T00:19:15.831Z,94905.00
2023-05-01T00:20:15.874Z,94907.00
2023-05-01T00:21:15.956Z,94905.00
2023-05-01T00:22:15.900Z,94907.00
2023-05-01T00:23:15.918Z,94903.00
2023-05-01T00:24:15.923Z,94907.00
2023-05-01T00:25:15.957Z,94905.00
2023-05-01T00:26:15.935Z,94907.00
2023-05-01T00:27:15.961Z,94909.00
2023-05-01T00:28:15.955Z,94903.00
2023-05-01T00:29:16.006Z,94905.00
2023-05-01T00:30:15.995Z,94899.00
2023-05-01T00:31:16.010Z,94897.00
2023-05-01T00:32:16.076Z,94897.00
2023-05-01T00:33:16.042Z,94897.00
2023-05-01T00:34:16.054Z,94895.00
2023-05-01T00:35:16.073Z,94897.00
2023-05-01T00:36:16.087Z,94895.00
2023-05-01T00:37:16.119Z,94895.00
2023-05-01T00:38:16.120Z,94887.00
2023-05-01T00:39:16.142Z,94887.00
2023-05-01T00:40:16.190Z,94887.00
2023-05-01T00:41:16.168Z,94895.00
2023-05-01T00:42:16.170Z,94897.00
2023-05-01T00:43:16.191Z,94901.00
2023-05-01T00:44:16.202Z,94901.00
2023-05-01T00:45:16.261Z,94899.00
2023-05-01T00:46:16.320Z,94895.00
2023-05-01T00:47:16.232Z,94887.00
2023-05-01T00:48:16.275Z,94887.00
2023-05-01T00:49:16.270Z,94887.00
2023-05-01T00:50:16.302Z,94885.00
2023-05-01T00:51:16.298Z,94885.00
2023-05-01T00:52:16.364Z,94883.00
2023-05-01T00:53:16.319Z,94881.00
2023-05-01T00:54:16.364Z,94881.00
2023-05-01T00:55:16.393Z,94883.00
2023-05-01T00:56:16.379Z,94881.00
2023-05-01T00:57:16.423Z,94883.00
2023-05-01T00:58:16.398Z,94879.00
2023-05-01T00:59:16.466Z,94879.00
2023-05-01T01:00:16.450Z,94879.00
2023-05-01T01:01:16.496Z,94879.00
2023-05-01T01:02:16.507Z,94875.00
2023-05-01T01:03:16.463Z,94873.00
2023-05-01T01:04:16.506Z,94873.00
2023-05-01T01:05:16.515Z,94873.00
2023-05-01T01:06:16.564Z,94872.00
2023-05-01T01:07:16.589Z,94872.00
2023-05-01T01:08:16.584Z,94872.00
2023-05-01T01:09:16.584Z,94873.00
2023-05-01T01:10:16.585Z,94877.00
2023-05-01T01:11:16.616Z,94879.00
2023-05-01T01:12:16.628Z,94879.00
2023-05-01T01:13:16.647Z,94875.00
2023-05-01T01:14:16.662Z,94875.00
2023-05-01T01:15:16.656Z,94872.00
2023-05-01T01:16:16.695Z,94870.00
2023-05-01T01:17:16.742Z,94870.00
2023-05-01T01:18:16.726Z,94872.00
2023-05-01T01:19:16.709Z,94873.00
2023-05-01T01:20:16.773Z,94873.00
2023-05-01T01:21:16.735Z,94873.00
2023-05-01T01:22:16.811Z,94873.00
2023-05-01T01:23:16.808Z,94875.00
2023-05-01T01:24:16.788Z,94873.00
2023-05-01T01:25:16.803Z,94873.00
2023-05-01T01:26:16.795Z,94872.00
2023-05-01T01:27:16.845Z,94870.00
2023-05-01T01:28:16.851Z,94872.00
2023-05-01T01:29:16.856Z,94870.00
2023-05-01T01:30:16.898Z,94873.00
2023-05-01T01:31:16.970Z,94870.00
2023-05-01T01:32:16.954Z,94872.00
2023-05-01T01:33:16.945Z,94873.00
2023-05-01T01:34:16.982Z,94870.00
2023-05-01T01:35:16.984Z,94870.00
2023-05-01T01:36:16.979Z,94870.00
2023-05-01T01:37:17.010Z,94868.00
2023-05-01T01:38:17.001Z,94870.00
2023-05-01T01:39:17.026Z,94866.00
2023-05-01T01:40:17.086Z,94868.00
2023-05-01T01:41:17.034Z,94866.00
2023-05-01T01:42:17.138Z,94864.00
2023-05-01T01:43:17.113Z,94866.00
2023-05-01T01:44:17.148Z,94864.00
2023-05-01T01:45:17.168Z,94864.00
2023-05-01T01:46:17.222Z,94864.00
2023-05-01T01:47:17.187Z,94862.00
2023-05-01T01:48:17.193Z,94860.00
2023-05-01T01:49:18.536Z,94862.00
2023-05-01T01:50:17.215Z,94858.00
2023-05-01T01:51:17.228Z,94858.00
2023-05-01T01:52:17.285Z,94856.00
2023-05-01T01:53:17.294Z,94858.00
2023-05-01T01:54:17.293Z,94858.00
2023-05-01T01:55:17.308Z,94856.00
2023-05-01T01:56:17.315Z,94858.00
2023-05-01T01:57:17.368Z,94858.00
2023-05-01T01:58:17.376Z,94858.00
2023-05-01T01:59:17.417Z,94858.00
2023-05-01T02:00:17.413Z,94856.00
2023-05-01T02:01:17.503Z,94858.00
2023-05-01T02:02:17.475Z,94856.00
2023-05-01T02:03:17.518Z,94854.00
2023-05-01T02:04:17.629Z,94858.00
2023-05-01T02:05:17.533Z,94854.00
2023-05-01T02:06:17.599Z,94852.00
2023-05-01T02:07:17.586Z,94854.00
2023-05-01T02:08:17.578Z,94852.00
2023-05-01T02:09:17.596Z,94848.00
2023-05-01T02:10:17.644Z,94848.00
2023-05-01T02:11:17.652Z,94854.00
2023-05-01T02:12:17.688Z,94850.00
2023-05-01T02:13:17.690Z,94850.00
2023-05-01T02:14:17.710Z,94846.00
2023-05-01T02:15:17.703Z,94844.00
2023-05-01T02:16:17.740Z,94846.00
2023-05-01T02:17:17.798Z,94848.00
2023-05-01T02:18:17.789Z,94850.00
2023-05-01T02:19:17.841Z,94850.00
2023-05-01T02:20:17.838Z,94848.00
2023-05-01T02:21:17.851Z,94846.00
2023-05-01T02:22:17.890Z,94842.00
2023-05-01T02:23:17.901Z,94840.00
2023-05-01T02:24:17.919Z,94840.00
2023-05-01T02:25:17.954Z,94842.00
2023-05-01T02:26:18.039Z,94840.00
2023-05-01T02:27:17.968Z,94840.00
2023-05-01T02:28:17.979Z,94840.00
2023-05-01T02:29:18.016Z,94838.00
2023-05-01T02:30:18.041Z,94836.00
2023-05-01T02:31:18.042Z,94836.00
2023-05-01T02:32:18.079Z,94832.00
2023-05-01T02:33:18.113Z,94840.00
2023-05-01T02:34:18.107Z,94834.00
2023-05-01T02:35:18.161Z,94836.00
2023-05-01T02:36:18.229Z,94832.00
2023-05-01T02:37:18.179Z,94834.00
2023-05-01T02:38:18.204Z,94830.00
2023-05-01T02:39:18.176Z,94832.00
2023-05-01T02:40:18.240Z,94830.00
2023-05-01T02:41:19.026Z,94828.00
2023-05-01T02:42:18.302Z,94828.00
2023-05-01T02:43:18.263Z,94828.00
2023-05-01T02:44:18.288Z,94830.00
2023-05-01T02:45:18.314Z,94830.00
2023-05-01T02:46:18.414Z,94830.00
2023-05-01T02:47:18.413Z,94830.00
2023-05-01T02:48:18.427Z,94826.00
2023-05-01T02:49:18.386Z,94824.00
2023-05-01T02:50:18.418Z,94822.00
2023-05-01T02:51:18.435Z,94822.00
2023-05-01T02:52:18.448Z,94822.00
2023-05-01T02:53:18.467Z,94822.00
2023-05-01T02:54:18.469Z,94822.00
2023-05-01T02:55:19.686Z,94822.00
2023-05-01T02:56:18.502Z,94822.00
2023-05-01T02:57:18.550Z,94820.00
2023-05-01T02:58:18.527Z,94820.00
2023-05-01T02:59:18.580Z,94820.00
2023-05-01T03:00:18.578Z,94822.00
2023-05-01T03:01:18.648Z,94820.00
2023-05-01T03:02:18.570Z,94820.00
2023-05-01T03:03:18.647Z,94820.00
2023-05-01T03:04:18.738Z,94818.00
2023-05-01T03:05:18.668Z,94817.00
2023-05-01T03:06:18.745Z,94820.00
2023-05-01T03:07:18.707Z,94818.00
2023-05-01T03:08:18.722Z,94818.00
2023-05-01T03:09:18.746Z,94818.00
2023-05-01T03:10:18.759Z,94817.00
2023-05-01T03:11:18.799Z,94817.00
2023-05-01T03:12:18.846Z,94817.00
2023-05-01T03:13:18.844Z,94815.00
2023-05-01T03:14:18.871Z,94813.00
2023-05-01T03:15:18.860Z,94817.00
2023-05-01T03:16:18.925Z,94809.00
2023-05-01T03:17:18.948Z,94813.00
2023-05-01T03:18:18.964Z,94807.00
2023-05-01T03:19:18.994Z,94813.00
2023-05-01T03:20:19.009Z,94807.00
2023-05-01T03:21:19.004Z,94807.00
2023-05-01T03:22:19.061Z,94807.00
2023-05-01T03:23:19.050Z,94803.00
2023-05-01T03:24:19.088Z,94803.00
2023-05-01T03:25:19.130Z,94803.00
2023-05-01T03:26:19.127Z,94803.00
2023-05-01T03:27:19.186Z,94805.00
2023-05-01T03:28:19.149Z,94805.00
2023-05-01T03:29:19.169Z,94807.00
2023-05-01T03:30:19.217Z,94807.00
2023-05-01T03:31:19.212Z,94803.00
2023-05-01T03:32:19.466Z,94803.00
2023-05-01T03:33:19.256Z,94799.00
2023-05-01T03:34:19.269Z,94799.00
2023-05-01T03:35:19.451Z,94797.00
2023-05-01T03:36:19.285Z,94799.00
2023-05-01T03:37:19.344Z,94799.00
2023-05-01T03:38:19.353Z,94799.00
2023-05-01T03:39:19.362Z,94797.00
2023-05-01T03:40:19.382Z,94797.00
2023-05-01T03:41:19.450Z,94793.00
2023-05-01T03:42:19.494Z,94791.00
2023-05-01T03:43:19.487Z,94791.00
2023-05-01T03:44:19.492Z,94791.00
2023-05-01T03:45:19.490Z,94793.00
2023-05-01T03:46:19.580Z,94793.00
2023-05-01T03:47:19.582Z,94791.00
2023-05-01T03:48:19.568Z,94791.00
2023-05-01T03:49:19.630Z,94787.00
2023-05-01T03:50:19.642Z,94789.00
2023-05-01T03:51:19.656Z,94783.00
2023-05-01T03:52:19.713Z,94783.00
2023-05-01T03:53:19.729Z,94783.00
2023-05-01T03:54:19.739Z,94783.00
2023-05-01T03:55:19.752Z,94785.00
2023-05-01T03:56:19.770Z,94779.00
2023-05-01T03:57:19.820Z,94783.00
2023-05-01T03:58:19.843Z,94779.00
2023-05-01T03:59:19.856Z,94781.00
2023-05-01T04:00:19.893Z,94781.00
2023-05-01T04:01:19.938Z,94779.00
2023-05-01T04:02:20.053Z,94781.00
2023-05-01T04:03:20.058Z,94781.00
2023-05-01T04:04:20.012Z,94783.00
2023-05-01T04:05:20.001Z,94783.00
2023-05-01T04:06:20.099Z,94783.00
2023-05-01T04:07:20.078Z,94783.00
2023-05-01T04:08:20.111Z,94779.00
2023-05-01T04:09:20.136Z,94777.00
2023-05-01T04:10:20.164Z,94777.00
2023-05-01T04:11:20.172Z,94779.00
2023-05-01T04:12:20.204Z,94781.00
2023-05-01T04:13:20.210Z,94779.00
2023-05-01T04:14:20.241Z,94777.00
2023-05-01T04:15:20.263Z,94777.00
2023-05-01T04:16:20.308Z,94777.00
2023-05-01T04:17:20.381Z,94777.00
2023-05-01T04:18:20.346Z,94779.00
2023-05-01T04:19:20.387Z,94777.00
2023-05-01T04:20:20.468Z,94777.00
2023-05-01T04:21:20.424Z,94779.00
2023-05-01T04:22:20.448Z,94777.00
2023-05-01T04:23:20.626Z,94779.00
2023-05-01T04:24:20.456Z,94773.00
2023-05-01T04:25:20.503Z,94775.00
2023-05-01T04:26:20.507Z,94777.00
2023-05-01T04:27:20.538Z,94775.00
2023-05-01T04:28:20.556Z,94773.00
2023-05-01T04:29:20.573Z,94775.00
2023-05-01T04:30:20.584Z,94773.00
2023-05-01T04:31:20.656Z,94773.00
2023-05-01T04:32:20.685Z,94773.00
2023-05-01T04:33:20.699Z,94775.00
2023-05-01T04:34:20.663Z,94771.00
2023-05-01T04:35:20.706Z,94773.00
2023-05-01T04:36:20.732Z,94779.00
2023-05-01T04:37:20.777Z,94773.00
2023-05-01T04:38:20.786Z,94775.00
2023-05-01T04:39:20.842Z,94770.00
2023-05-01T04:40:20.863Z,94770.00
2023-05-01T04:41:20.869Z,94768.00
2023-05-01T04:42:20.918Z,94770.00
2023-05-01T04:43:20.925Z,94773.00
2023-05-01T04:44:20.961Z,94771.00
2023-05-01T04:45:20.961Z,94771.00
2023-05-01T04:46:21.012Z,94771.00
2023-05-01T04:47:20.975Z,94773.00
2023-05-01T04:48:21.022Z,94771.00
2023-05-01T04:49:21.025Z,94777.00
2023-05-01T04:50:21.077Z,94775.00
2023-05-01T04:51:21.093Z,94773.00
2023-05-01T04:52:21.128Z,94771.00
2023-05-01T04:53:21.122Z,94773.00
2023-05-01T04:54:21.167Z,94775.00
2023-05-01T04:55:21.197Z,94777.00
2023-05-01T04:56:21.215Z,94783.00
2023-05-01T04:57:21.246Z,94779.00
2023-05-01T04:58:21.250Z,94779.00
2023-05-01T04:59:21.277Z,94779.00
2023-05-01T05:00:21.381Z,94779.00
2023-05-01T05:01:21.376Z,94781.00
2023-05-01T05:02:21.402Z,94785.00
2023-05-01T05:03:21.490Z,94787.00
2023-05-01T05:04:21.441Z,94787.00
2023-05-01T05:05:21.441Z,94785.00
2023-05-01T05:06:21.571Z,94783.00
2023-05-01T05:07:21.515Z,94783.00
2023-05-01T05:08:21.750Z,94781.00
2023-05-01T05:09:21.552Z,94783.00
2023-05-01T05:10:21.584Z,94783.00
2023-05-01T05:11:21.611Z,94783.00
2023-05-01T05:12:21.623Z,94785.00
2023-05-01T05:13:21.656Z,94787.00
2023-05-01T05:14:21.673Z,94787.00
2023-05-01T05:15:21.692Z,94787.00
2023-05-01T05:16:21.774Z,94787.00
2023-05-01T05:17:21.762Z,94789.00
2023-05-01T05:18:21.835Z,94785.00
2023-05-01T05:19:21.813Z,94783.00
2023-05-01T05:20:21.859Z,94785.00
2023-05-01T05:21:21.880Z,94783.00
2023-05-01T05:22:21.897Z,94781.00
2023-05-01T05:23:21.936Z,94779.00
2023-05-01T05:24:21.928Z,94781.00
2023-05-01T05:25:21.944Z,94779.00
2023-05-01T05:26:21.994Z,94777.00
2023-05-01T05:27:22.030Z,94781.00
2023-05-01T05:28:22.060Z,94781.00
2023-05-01T05:29:22.084Z,94779.00
2023-05-01T05:30:22.119Z,94779.00
2023-05-01T05:31:22.144Z,94781.00
2023-05-01T05:32:22.297Z,94781.00
2023-05-01T05:33:22.208Z,94781.00
2023-05-01T05:34:22.244Z,94781.00
2023-05-01T05:35:22.236Z,94779.00
2023-05-01T05:36:22.269Z,94779.00
2023-05-01T05:37:22.275Z,94781.00
2023-05-01T05:38:22.280Z,94781.00
2023-05-01T05:39:22.329Z,94783.00
2023-05-01T05:40:22.367Z,94785.00
2023-05-01T05:41:22.361Z,94785.00
2023-05-01T05:42:22.384Z,94789.00
2023-05-01T05:43:22.423Z,94787.00
2023-05-01T05:44:22.416Z,94787.00
2023-05-01T05:45:22.417Z,94787.00
2023-05-01T05:46:22.488Z,94787.00
2023-05-01T05:47:22.469Z,94787.00
2023-05-01T05:48:22.590Z,94787.00
2023-05-01T05:49:22.519Z,94785.00
2023-05-01T05:50:22.534Z,94787.00
2023-05-01T05:51:22.590Z,94783.00
2023-05-01T05:52:22.606Z,94783.00
2023-05-01T05:53:25.540Z,94783.00
2023-05-01T05:54:22.592Z,94783.00
2023-05-01T05:55:22.575Z,94785.00
2023-05-01T05:56:22.631Z,94785.00
2023-05-01T05:57:22.569Z,94785.00
2023-05-01T05:58:22.577Z,94783.00
2023-05-01T05:59:22.563Z,94783.00
2023-05-01T06:00:22.575Z,94783.00
2023-05-01T06:01:22.527Z,94787.00
2023-05-01T06:02:22.589Z,94787.00
2023-05-01T06:03:22.847Z,94785.00
2023-05-01T06:04:22.555Z,94783.00
2023-05-01T06:05:22.551Z,94785.00
2023-05-01T06:06:22.596Z,94787.00
2023-05-01T06:07:22.545Z,94787.00
2023-05-01T06:08:22.542Z,94785.00
2023-05-01T06:09:22.509Z,94783.00
2023-05-01T06:10:22.486Z,94779.00
2023-05-01T06:11:22.485Z,94779.00
2023-05-01T06:12:22.493Z,94781.00
2023-05-01T06:13:22.483Z,94783.00
2023-05-01T06:14:22.477Z,94781.00
2023-05-01T06:15:22.457Z,94779.00
2023-05-01T06:16:22.461Z,94779.00
2023-05-01T06:17:22.497Z,94775.00
2023-05-01T06:18:22.516Z,94775.00
2023-05-01T06:19:22.425Z,94777.00
2023-05-01T06:20:22.425Z,94779.00
2023-05-01T06:21:22.417Z,94777.00
2023-05-01T06:22:22.400Z,94777.00
2023-05-01T06:23:22.370Z,94773.00
2023-05-01T06:24:22.420Z,94773.00
2023-05-01T06:25:22.412Z,94773.00
2023-05-01T06:26:22.415Z,94773.00
2023-05-01T06:27:22.392Z,94775.00
2023-05-01T06:28:22.387Z,94773.00
2023-05-01T06:29:22.346Z,94775.00
2023-05-01T06:30:22.346Z,94775.00
2023-05-01T06:31:22.374Z,94773.00
2023-05-01T06:32:22.438Z,94775.00
2023-05-01T06:33:22.374Z,94773.00
2023-05-01T06:34:22.346Z,94771.00
2023-05-01T06:35:22.329Z,94771.00
2023-05-01T06:36:22.313Z,94771.00
2023-05-01T06:37:22.324Z,94770.00
2023-05-01T06:38:22.288Z,94768.00
2023-05-01T06:39:22.286Z,94766.00
2023-05-01T06:40:22.286Z,94768.00
2023-05-01T06:41:22.273Z,94766.00
2023-05-01T06:42:22.274Z,94768.00
2023-05-01T06:43:22.268Z,94768.00
2023-05-01T06:44:22.258Z,94768.00
2023-05-01T06:45:22.221Z,94768.00
2023-05-01T06:46:22.270Z,94768.00
2023-05-01T06:47:22.289Z,94768.00
2023-05-01T06:48:22.209Z,94770.00
2023-05-01T06:49:22.235Z,94770.00
2023-05-01T06:50:22.216Z,94775.00
2023-05-01T06:51:22.228Z,94775.00
2023-05-01T06:52:22.235Z,94777.00
2023-05-01T06:53:22.191Z,94777.00
2023-05-01T06:54:22.185Z,94777.00
2023-05-01T06:55:22.199Z,94779.00
2023-05-01T06:56:22.183Z,94777.00
2023-05-01T06:57:22.191Z,94779.00
2023-05-01T06:58:24.368Z,94779.00
2023-05-01T06:59:22.275Z,94779.00
2023-05-01T07:00:22.282Z,94777.00
2023-05-01T07:01:22.477Z,94779.00
2023-05-01T07:02:22.378Z,94777.00
2023-05-01T07:03:22.350Z,94775.00
2023-05-01T07:04:22.325Z,94773.00
2023-05-01T07:05:22.359Z,94773.00
2023-05-01T07:06:22.447Z,94773.00
2023-05-01T07:07:22.422Z,94773.00
2023-05-01T07:08:22.441Z,94775.00
2023-05-01T07:09:22.459Z,94773.00
2023-05-01T07:10:22.474Z,94773.00
2023-05-01T07:11:22.481Z,94777.00
2023-05-01T07:12:22.508Z,94775.00
2023-05-01T07:13:22.555Z,94773.00
2023-05-01T07:14:22.610Z,94775.00
2023-05-01T07:15:22.598Z,94775.00
2023-05-01T07:16:22.630Z,94775.00
2023-05-01T07:17:22.710Z,94775.00
2023-05-01T07:18:22.641Z,94773.00
2023-05-01T07:19:22.644Z,94773.00
2023-05-01T07:20:22.675Z,94773.00
2023-05-01T07:21:22.676Z,94777.00
2023-05-01T07:22:22.715Z,94775.00
2023-05-01T07:23:22.706Z,94775.00
2023-05-01T07:24:22.788Z,94775.00
2023-05-01T07:25:22.769Z,94777.00
2023-05-01T07:26:22.776Z,94777.00
2023-05-01T07:27:22.823Z,94777.00
2023-05-01T07:28:22.803Z,94777.00
2023-05-01T07:29:22.834Z,94777.00
2023-05-01T07:30:22.859Z,94777.00
2023-05-01T07:31:22.950Z,94773.00
2023-05-01T07:32:22.904Z,94771.00
2023-05-01T07:33:22.957Z,94770.00
2023-05-01T07:34:22.936Z,94768.00
2023-05-01T07:35:22.954Z,94768.00
2023-05-01T07:36:22.986Z,94768.00
2023-05-01T07:37:22.993Z,94768.00
2023-05-01T07:38:22.976Z,94768.00
2023-05-01T07:39:22.981Z,94768.00
2023-05-01T07:40:23.020Z,94770.00
2023-05-01T07:41:23.050Z,94768.00
2023-05-01T07:42:23.040Z,94770.00
2023-05-01T07:43:23.027Z,94768.00
2023-05-01T07:44:23.050Z,94766.00
2023-05-01T07:45:23.080Z,94766.00
2023-05-01T07:46:23.153Z,94764.00
2023-05-01T07:47:23.149Z,94760.00
2023-05-01T07:48:23.138Z,94760.00
2023-05-01T07:49:23.152Z,94762.00
2023-05-01T07:50:23.177Z,94764.00
2023-05-01T07:51:23.198Z,94766.00
2023-05-01T07:52:23.232Z,94764.00
2023-05-01T07:53:23.227Z,94768.00
2023-05-01T07:54:23.265Z,94766.00
2023-05-01T07:55:23.256Z,94768.00
2023-05-01T07:56:23.262Z,94766.00
2023-05-01T07:57:23.333Z,94764.00
2023-05-01T07:58:23.355Z,94766.00
2023-05-01T07:59:23.354Z,94768.00
2023-05-01T08:00:23.353Z,94764.00
2023-05-01T08:01:23.396Z,94768.00
2023-05-01T08:02:23.458Z,94768.00
2023-05-01T08:03:23.564Z,94762.00
2023-05-01T08:04:23.557Z,94766.00
2023-05-01T08:05:23.452Z,94762.00
2023-05-01T08:06:23.505Z,94762.00
2023-05-01T08:07:23.501Z,94762.00
2023-05-01T08:08:23.455Z,94758.00
2023-05-01T08:09:23.477Z,94756.00
2023-05-01T08:10:23.543Z,94756.00
2023-05-01T08:11:23.552Z,94756.00
2023-05-01T08:12:23.560Z,94756.00
2023-05-01T08:13:23.600Z,94758.00
2023-05-01T08:14:23.609Z,94756.00
2023-05-01T08:15:23.616Z,94758.00
2023-05-01T08:16:23.626Z,94758.00
2023-05-01T08:17:23.664Z,94756.00
2023-05-01T08:18:23.651Z,94758.00
2023-05-01T08:19:23.649Z,94760.00
2023-05-01T08:20:23.703Z,94758.00
2023-05-01T08:21:23.641Z,94756.00
2023-05-01T08:22:23.659Z,94758.00
2023-05-01T08:23:23.712Z,94760.00
2023-05-01T08:24:23.723Z,94756.00
2023-05-01T08:25:23.718Z,94754.00
2023-05-01T08:26:23.787Z,94754.00
2023-05-01T08:27:23.756Z,94754.00
2023-05-01T08:28:23.785Z,94756.00
2023-05-01T08:29:23.774Z,94756.00
2023-05-01T08:30:23.792Z,94756.00
2023-05-01T08:31:23.870Z,94758.00
2023-05-01T08:32:23.852Z,94758.00
2023-05-01T08:33:23.857Z,94754.00
2023-05-01T08:34:23.832Z,94756.00
2023-05-01T08:35:23.856Z,94754.00
2023-05-01T08:36:23.862Z,94750.00
2023-05-01T08:37:23.899Z,94752.00
2023-05-01T08:38:23.894Z,94748.00
2023-05-01T08:39:23.902Z,94748.00
2023-05-01T08:40:23.905Z,94748.00
2023-05-01T08:41:23.914Z,94744.00
2023-05-01T08:42:23.955Z,94746.00
2023-05-01T08:43:23.970Z,94746.00
2023-05-01T08:44:23.985Z,94742.00
2023-05-01T08:45:23.981Z,94738.00
2023-05-01T08:46:24.054Z,94740.00
2023-05-01T08:47:24.020Z,94740.00
2023-05-01T08:48:24.006Z,94734.00
2023-05-01T08:49:24.056Z,94738.00
2023-05-01T08:50:24.031Z,94736.00
2023-05-01T08:51:24.072Z,94736.00
2023-05-01T08:52:24.097Z,94736.00
2023-05-01T08:53:24.085Z,94736.00
2023-05-01T08:54:24.089Z,94734.00
2023-05-01T08:55:24.115Z,94732.00
2023-05-01T08:56:24.124Z,94736.00
2023-05-01T08:57:24.130Z,94734.00
2023-05-01T08:58:24.098Z,94732.00
2023-05-01T08:59:24.143Z,94732.00
2023-05-01T09:00:24.173Z,94734.00
2023-05-01T09:01:24.189Z,94732.00
2023-05-01T09:02:24.390Z,94734.00
2023-05-01T09:03:24.290Z,94732.00
2023-05-01T09:04:24.349Z,94738.00
2023-05-01T09:05:24.227Z,94738.00
2023-05-01T09:06:24.280Z,94738.00
2023-05-01T09:07:24.234Z,94734.00
2023-05-01T09:08:24.253Z,94730.00
2023-05-01T09:09:24.230Z,94728.00
2023-05-01T09:10:24.280Z,94730.00
2023-05-01T09:11:24.238Z,94728.00
2023-05-01T09:12:24.198Z,94732.00
2023-05-01T09:13:24.247Z,94728.00
2023-05-01T09:14:24.198Z,94728.00
2023-05-01T09:15:24.191Z,94728.00
2023-05-01T09:16:24.186Z,94726.00
2023-05-01T09:17:24.183Z,94726.00
2023-05-01T09:18:24.186Z,94724.00
2023-05-01T09:19:24.171Z,94726.00
2023-05-01T09:20:24.174Z,94726.00
2023-05-01T09:21:24.160Z,94724.00
2023-05-01T09:22:24.132Z,94724.00
2023-05-01T09:23:24.147Z,94723.00
2023-05-01T09:24:24.126Z,94721.00
2023-05-01T09:25:24.132Z,94721.00
2023-05-01T09:26:24.142Z,94721.00
2023-05-01T09:27:24.107Z,94719.00
2023-05-01T09:28:24.124Z,94719.00
2023-05-01T09:29:24.076Z,94719.00
2023-05-01T09:30:24.081Z,94717.00
2023-05-01T09:31:24.198Z,94717.00
2023-05-01T09:32:24.203Z,94713.00
2023-05-01T09:33:24.209Z,94709.00
2023-05-01T09:34:24.048Z,94705.00
2023-05-01T09:35:24.077Z,94703.00
2023-05-01T09:36:24.052Z,94705.00
2023-05-01T09:37:24.050Z,94705.00
2023-05-01T09:38:24.057Z,94703.00
2023-05-01T09:39:24.024Z,94703.00
2023-05-01T09:40:24.040Z,94703.00
2023-05-01T09:41:23.995Z,94703.00
2023-05-01T09:42:24.028Z,94701.00
2023-05-01T09:43:24.018Z,94697.00
2023-05-01T09:44:24.014Z,94699.00
2023-05-01T09:45:24.020Z,94697.00
2023-05-01T09:46:24.072Z,94699.00
2023-05-01T09:47:24.109Z,94699.00
2023-05-01T09:48:24.063Z,94697.00
2023-05-01T09:49:24.026Z,94693.00
2023-05-01T09:50:24.041Z,94693.00
2023-05-01T09:51:24.068Z,94693.00
2023-05-01T09:52:24.079Z,94689.00
2023-05-01T09:53:24.072Z,94695.00
2023-05-01T09:54:24.088Z,94691.00
2023-05-01T09:55:25.557Z,94691.00
2023-05-01T09:56:24.072Z,94689.00
2023-05-01T09:57:24.111Z,94689.00
2023-05-01T09:58:24.108Z,94687.00
2023-05-01T09:59:24.091Z,94689.00
2023-05-01T10:00:24.104Z,94687.00
2023-05-01T10:01:24.134Z,94685.00
2023-05-01T10:02:24.283Z,94685.00
2023-05-01T10:03:24.212Z,94683.00
2023-05-01T10:04:24.077Z,94681.00
2023-05-01T10:05:24.106Z,94679.00
2023-05-01T10:06:24.159Z,94679.00
2023-05-01T10:07:24.095Z,94676.00
2023-05-01T10:08:24.108Z,94679.00
2023-05-01T10:09:24.179Z,94679.00
2023-05-01T10:10:24.142Z,94679.00
2023-05-01T10:11:24.175Z,94676.00
2023-05-01T10:12:24.106Z,94674.00
2023-05-01T10:13:24.134Z,94674.00
2023-05-01T10:14:24.410Z,94672.00
2023-05-01T10:15:26.597Z,94672.00
2023-05-01T10:16:24.164Z,94672.00
2023-05-01T10:17:24.193Z,94672.00
2023-05-01T10:18:24.098Z,94674.00
2023-05-01T10:19:24.099Z,94672.00
2023-05-01T10:20:24.072Z,94666.00
2023-05-01T10:21:24.106Z,94668.00
2023-05-01T10:22:24.086Z,94664.00
2023-05-01T10:23:24.094Z,94664.00
2023-05-01T10:24:24.090Z,94664.00
2023-05-01T10:25:24.079Z,94670.00
2023-05-01T10:26:24.102Z,94674.00
2023-05-01T10:27:24.065Z,94666.00
2023-05-01T10:28:24.057Z,94672.00
2023-05-01T10:29:24.023Z,94672.00
2023-05-01T10:30:24.049Z,94664.00
2023-05-01T10:31:24.077Z,94670.00
2023-05-01T10:32:24.063Z,94670.00
2023-05-01T10:33:24.038Z,94668.00
2023-05-01T10:34:26.251Z,94666.00
2023-05-01T10:35:24.011Z,94666.00
2023-05-01T10:36:24.025Z,94668.00
2023-05-01T10:37:23.992Z,94664.00
2023-05-01T10:38:23.992Z,94660.00
2023-05-01T10:39:23.975Z,94658.00
2023-05-01T10:40:23.983Z,94656.00
2023-05-01T10:41:23.986Z,94654.00
2023-05-01T10:42:23.951Z,94654.00
2023-05-01T10:43:23.941Z,94652.00
2023-05-01T10:44:23.932Z,94652.00
2023-05-01T10:45:23.924Z,94650.00
2023-05-01T10:46:24.004Z,94648.00
2023-05-01T10:47:23.942Z,94646.00
2023-05-01T10:48:23.908Z,94648.00
2023-05-01T10:49:23.884Z,94646.00
2023-05-01T10:50:23.883Z,94644.00
2023-05-01T10:51:26.609Z,94646.00
2023-05-01T10:52:23.872Z,94642.00
2023-05-01T10:53:23.913Z,94640.00
2023-05-01T10:54:23.845Z,94644.00
2023-05-01T10:55:23.884Z,94640.00
2023-05-01T10:56:23.862Z,94631.00
2023-05-01T10:57:23.834Z,94627.00
2023-05-01T10:58:23.844Z,94627.00
2023-05-01T10:59:23.846Z,94623.00
2023-05-01T11:00:23.864Z,94621.00
2023-05-01T11:01:23.851Z,94623.00
2023-05-01T11:02:23.888Z,94621.00
2023-05-01T11:03:23.817Z,94617.00
2023-05-01T11:04:23.842Z,94613.00
2023-05-01T11:05:35.782Z,94615.00
2023-05-01T11:06:24.836Z,94613.00
2023-05-01T11:07:23.900Z,94611.00
2023-05-01T11:08:23.780Z,94611.00
2023-05-01T11:09:23.758Z,94607.00
2023-05-01T11:10:23.750Z,94607.00
2023-05-01T11:11:23.731Z,94609.00
2023-05-01T11:12:23.731Z,94609.00
2023-05-01T11:13:23.743Z,94609.00
2023-05-01T11:14:23.752Z,94607.00
2023-05-01T11:15:23.692Z,94607.00
2023-05-01T11:16:23.786Z,94607.00
2023-05-01T11:17:23.690Z,94607.00
2023-05-01T11:18:23.724Z,94603.00
2023-05-01T11:19:23.790Z,94603.00
2023-05-01T11:20:23.762Z,94599.00
2023-05-01T11:21:23.763Z,94603.00
2023-05-01T11:22:23.799Z,94605.00
2023-05-01T11:23:23.862Z,94605.00
2023-05-01T11:24:23.883Z,94603.00
2023-05-01T11:25:23.917Z,94601.00
2023-05-01T11:26:23.982Z,94601.00
2023-05-01T11:27:24.725Z,94601.00
2023-05-01T11:28:24.042Z,94597.00
2023-05-01T11:29:24.059Z,94599.00
2023-05-01T11:30:24.095Z,94597.00
2023-05-01T11:31:24.187Z,94595.00
2023-05-01T11:32:24.255Z,94595.00
2023-05-01T11:33:24.284Z,94591.00
2023-05-01T11:34:24.303Z,94593.00
2023-05-01T11:35:24.326Z,94591.00
2023-05-01T11:36:24.396Z,94589.00
2023-05-01T11:37:24.395Z,94585.00
2023-05-01T11:38:24.435Z,94583.00
2023-05-01T11:39:24.475Z,94583.00
2023-05-01T11:40:24.534Z,94579.00
2023-05-01T11:41:24.542Z,94581.00
2023-05-01T11:42:24.625Z,94585.00
2023-05-01T11:43:24.614Z,94585.00
2023-05-01T11:44:24.608Z,94585.00
2023-05-01T11:45:24.675Z,94583.00